createdAt,value
2023-08-02T00:01:59.874Z,95.70
2023-08-02T00:04:31.554Z,96.72
2023-08-02T00:07:05.610Z,96.05
2023-08-02T00:09:37.877Z,111.55
2023-08-02T00:12:10.772Z,101.53
2023-08-02T00:14:41.524Z,84.25
2023-08-02T00:17:13.437Z,88.97
2023-08-02T00:19:48.967Z,107.82
2023-08-02T00:22:20.469Z,102.30
2023-08-02T00:24:51.508Z,111.22
2023-08-02T00:27:25.312Z,106.65
2023-08-02T00:29:56.405Z,85.78
2023-08-02T00:32:27.686Z,101.18
2023-08-02T00:34:59.052Z,110.53
2023-08-02T00:37:33.950Z,95.55
2023-08-02T00:40:06.745Z,101.75
2023-08-02T00:42:41.899Z,103.78
2023-08-02T00:45:13.307Z,88.20
2023-08-02T00:47:43.830Z,98.88
2023-08-02T00:50:14.532Z,122.55
2023-08-02T00:52:45.169Z,90.55
2023-08-02T00:55:15.860Z,102.03
2023-08-02T00:57:46.711Z,97.95
2023-08-02T01:00:17.508Z,110.55
2023-08-02T01:02:48.549Z,101.43
2023-08-02T01:05:20.388Z,103.75
2023-08-02T01:08:01.778Z,115.20
2023-08-02T01:10:48.587Z,103.18
2023-08-02T01:13:21.786Z,105.18
2023-08-02T01:15:52.596Z,116.65
2023-08-02T01:18:23.747Z,103.65
2023-08-02T01:20:54.820Z,108.80
2023-08-02T01:23:25.989Z,108.97
2023-08-02T01:26:02.935Z,116.95
2023-08-02T01:28:40.480Z,107.03
2023-08-02T01:31:14.180Z,109.30
2023-08-02T01:33:56.584Z,101.63
2023-08-02T01:38:58.794Z,116.10
2023-08-02T01:41:29.630Z,105.63
2023-08-02T01:44:04.477Z,109.05
2023-08-02T01:46:35.588Z,115.57
2023-08-02T01:49:06.892Z,119.67
2023-08-02T01:51:38.256Z,118.38
2023-08-02T01:54:10.067Z,121.50
2023-08-02T01:56:42.574Z,118.10
2023-08-02T01:59:14.975Z,126.37
2023-08-02T02:01:45.973Z,113.65
2023-08-02T02:04:17.040Z,133.50
2023-08-02T02:06:48.442Z,110.68
2023-08-02T02:09:19.983Z,136.18
2023-08-02T02:11:51.963Z,127.65
2023-08-02T02:14:26.723Z,124.40
2023-08-02T02:16:57.766Z,134.07
2023-08-02T02:19:28.875Z,121.43
2023-08-02T02:21:59.853Z,130.00
2023-08-02T02:24:31.095Z,142.95
2023-08-02T02:27:02.117Z,126.00
2023-08-02T02:29:33.086Z,137.68
2023-08-02T02:32:03.751Z,134.80
2023-08-02T02:34:34.693Z,128.32
2023-08-02T02:37:05.452Z,119.80
2023-08-02T02:39:36.397Z,141.25
2023-08-02T02:42:07.780Z,124.65
2023-08-02T02:44:45.891Z,135.50
2023-08-02T02:47:17.077Z,120.80
2023-08-02T02:49:49.586Z,138.00
2023-08-02T02:52:20.378Z,110.68
2023-08-02T02:54:51.290Z,107.78
2023-08-02T02:57:21.902Z,105.03
2023-08-02T02:59:53.719Z,105.80
2023-08-02T03:04:55.525Z,87.60
2023-08-02T03:07:26.136Z,82.55
2023-08-02T03:09:56.931Z,99.15
2023-08-02T03:12:27.595Z,88.72
2023-08-02T03:14:58.694Z,100.07
2023-08-02T03:17:30.307Z,89.35
2023-08-02T03:20:01.225Z,74.30
2023-08-02T03:22:32.104Z,75.35
2023-08-02T03:25:02.973Z,76.78
2023-08-02T03:27:33.728Z,74.50
2023-08-02T03:30:08.116Z,70.45
2023-08-02T03:32:39.182Z,72.93
2023-08-02T03:35:10.235Z,73.10
2023-08-02T03:37:40.957Z,54.22
2023-08-02T03:40:12.771Z,55.45
2023-08-02T03:42:44.074Z,61.15
2023-08-02T03:45:14.931Z,82.00
2023-08-02T03:47:45.687Z,53.92
2023-08-02T03:50:16.830Z,54.20
2023-08-02T03:52:48.438Z,60.05
2023-08-02T03:55:19.680Z,61.00
2023-08-02T03:57:50.511Z,64.55
2023-08-02T04:00:21.638Z,50.65
2023-08-02T04:02:53.115Z,51.00
2023-08-02T04:05:24.646Z,64.22
2023-08-02T04:07:56.067Z,45.33
2023-08-02T04:10:27.718Z,53.53
2023-08-02T04:12:58.779Z,49.95
2023-08-02T04:15:29.979Z,41.72
2023-08-02T04:18:01.754Z,31.63
2023-08-02T04:20:33.783Z,28.45
2023-08-02T04:23:04.670Z,24.90
2023-08-02T04:25:35.524Z,34.58
2023-08-02T04:28:06.589Z,30.50
2023-08-02T04:30:37.963Z,37.10
2023-08-02T04:33:09.080Z,46.55
2023-08-02T04:35:40.342Z,20.67
2023-08-02T04:38:12.112Z,34.38
2023-08-02T04:40:42.986Z,33.30
2023-08-02T04:43:13.306Z,35.20
2023-08-02T04:45:43.871Z,30.02
2023-08-02T04:48:14.335Z,27.42
2023-08-02T04:50:46.313Z,36.10
2023-08-02T04:53:16.899Z,32.15
2023-08-02T04:55:48.540Z,33.05
2023-08-02T04:58:19.094Z,22.08
2023-08-02T05:00:49.686Z,29.73
2023-08-02T05:03:20.292Z,25.35
2023-08-02T05:05:52.296Z,25.17
2023-08-02T05:08:22.825Z,27.20
2023-08-02T05:10:53.434Z,29.90
2023-08-02T05:13:26.067Z,26.10
2023-08-02T05:15:58.835Z,27.13
2023-08-02T05:18:29.451Z,25.17
2023-08-02T05:21:03.982Z,20.95
2023-08-02T05:23:43.278Z,28.70
2023-08-02T05:26:15.514Z,23.48
2023-08-02T05:28:46.006Z,30.70
2023-08-02T05:31:17.887Z,35.17
2023-08-02T05:33:50.921Z,19.40
2023-08-02T05:36:21.651Z,33.08
2023-08-02T05:38:52.337Z,22.77
2023-08-02T05:41:22.802Z,32.58
2023-08-02T05:43:56.269Z,26.20
2023-08-02T05:46:26.602Z,25.48
2023-08-02T05:48:57.076Z,33.10
2023-08-02T05:51:28.001Z,22.80
2023-08-02T05:53:58.572Z,27.60
2023-08-02T05:56:35.603Z,21.38
2023-08-02T06:02:34.275Z,33.15
2023-08-02T06:05:22.891Z,27.55
2023-08-02T06:10:59.076Z,24.48
2023-08-02T06:13:31.710Z,19.70
2023-08-02T06:16:02.161Z,16.88
2023-08-02T06:18:33.108Z,28.42
2023-08-02T06:21:03.533Z,22.88
2023-08-02T06:23:33.913Z,26.42
2023-08-02T06:26:04.626Z,26.92
2023-08-02T06:28:35.439Z,21.30
2023-08-02T06:31:08.416Z,38.37
2023-08-02T06:33:41.945Z,28.38
2023-08-02T06:36:13.323Z,31.98
2023-08-02T06:38:44.359Z,23.67
2023-08-02T06:41:15.239Z,29.08
2023-08-02T06:43:45.841Z,26.02
2023-08-02T06:46:41.274Z,24.63
2023-08-02T06:49:30.530Z,25.17
2023-08-02T06:52:05.960Z,26.05
2023-08-02T06:54:38.825Z,25.48
2023-08-02T06:57:18.003Z,27.10
2023-08-02T06:59:59.115Z,24.70
2023-08-02T07:02:38.409Z,28.48
2023-08-02T07:05:10.925Z,22.35
2023-08-02T07:07:43.864Z,27.10
2023-08-02T07:10:20.462Z,28.90
2023-08-02T07:12:57.571Z,27.25
2023-08-02T07:15:30.141Z,29.98
2023-08-02T07:18:07.156Z,28.20
2023-08-02T07:20:37.871Z,31.92
2023-08-02T07:23:08.316Z,23.55
2023-08-02T07:25:39.188Z,28.60
2023-08-02T07:28:09.742Z,22.25
2023-08-02T07:30:44.139Z,23.17
2023-08-02T07:33:18.082Z,28.58
2023-08-02T07:35:49.415Z,25.80
2023-08-02T07:38:20.109Z,22.98
2023-08-02T07:40:50.899Z,31.00
2023-08-02T07:43:35.228Z,29.95
2023-08-02T07:46:18.127Z,31.23
2023-08-02T07:48:49.059Z,33.67
2023-08-02T07:51:20.085Z,32.30
2023-08-02T07:53:52.432Z,23.67
2023-08-02T07:56:23.941Z,27.52
2023-08-02T07:58:54.283Z,36.72
2023-08-02T08:01:24.916Z,27.27
2023-08-02T08:03:55.675Z,34.17
2023-08-02T08:06:29.183Z,18.58
2023-08-02T08:08:59.818Z,33.10
2023-08-02T08:11:31.634Z,25.05
2023-08-02T08:16:35.375Z,28.55
2023-08-02T08:19:06.076Z,29.25
2023-08-02T08:21:40.746Z,30.45
2023-08-02T08:24:12.858Z,41.25
2023-08-02T08:26:43.653Z,27.80
2023-08-02T08:29:14.548Z,28.42
2023-08-02T08:31:45.831Z,22.60
2023-08-02T08:34:16.624Z,21.83
2023-08-02T08:36:50.476Z,31.23
2023-08-02T08:39:22.019Z,38.63
2023-08-02T08:44:51.955Z,34.55
2023-08-02T08:47:23.492Z,27.67
2023-08-02T08:49:54.847Z,29.83
2023-08-02T08:52:25.474Z,24.10
2023-08-02T08:54:56.439Z,31.58
2023-08-02T08:57:27.630Z,26.55
2023-08-02T08:59:59.434Z,30.10
2023-08-02T09:02:32.141Z,29.90
2023-08-02T09:05:08.031Z,41.15
2023-08-02T09:07:38.549Z,36.63
2023-08-02T09:10:09.831Z,42.63
2023-08-02T09:12:49.406Z,44.72
2023-08-02T09:15:20.588Z,34.97
2023-08-02T09:18:00.560Z,38.80
2023-08-02T09:20:33.989Z,37.40
2023-08-02T09:23:22.058Z,46.30
2023-08-02T09:26:25.141Z,53.95
2023-08-02T09:29:06.416Z,47.60
2023-08-02T09:31:42.162Z,53.22
2023-08-02T09:34:12.916Z,56.45
2023-08-02T09:36:43.607Z,57.05
2023-08-02T09:39:19.466Z,51.60
2023-08-02T09:41:58.893Z,53.92
2023-08-02T09:44:31.376Z,46.70
2023-08-02T09:47:12.129Z,51.97
2023-08-02T09:49:42.689Z,54.45
2023-08-02T09:52:13.699Z,50.03
2023-08-02T09:54:44.212Z,47.00
2023-08-02T09:57:14.925Z,44.53
2023-08-02T09:59:48.520Z,43.20
2023-08-02T10:02:20.626Z,44.50
2023-08-02T10:04:52.759Z,47.47
2023-08-02T10:07:24.208Z,40.15
2023-08-02T10:10:01.149Z,41.22
2023-08-02T10:12:55.361Z,29.20
2023-08-02T10:15:36.567Z,34.80
2023-08-02T10:18:08.774Z,45.53
2023-08-02T10:20:46.507Z,41.35
2023-08-02T10:23:24.536Z,40.03
2023-08-02T10:25:56.442Z,39.80
2023-08-02T10:28:28.003Z,52.67
2023-08-02T10:30:58.985Z,83.53
2023-08-02T10:33:31.168Z,58.75
2023-08-02T10:36:10.001Z,39.33
2023-08-02T10:38:55.458Z,38.22
2023-08-02T10:41:32.872Z,56.78
2023-08-02T10:44:25.286Z,37.33
2023-08-02T10:47:38.671Z,42.28
2023-08-02T10:50:10.355Z,47.28
2023-08-02T10:52:45.008Z,37.13
2023-08-02T10:55:21.409Z,41.97
2023-08-02T10:57:58.072Z,29.90
2023-08-02T11:00:34.627Z,36.08
2023-08-02T11:03:08.283Z,46.30
2023-08-02T11:05:46.315Z,50.40
2023-08-02T11:08:17.038Z,33.13
2023-08-02T11:10:57.376Z,39.15
2023-08-02T11:13:43.390Z,35.50
2023-08-02T11:16:15.647Z,37.33
2023-08-02T11:18:47.581Z,37.63
2023-08-02T11:21:18.035Z,40.93
2023-08-02T11:26:26.829Z,31.33
2023-08-02T11:28:57.392Z,25.88
2023-08-02T11:31:31.351Z,40.58
2023-08-02T11:34:01.921Z,32.70
2023-08-02T11:36:57.237Z,24.52
2023-08-02T11:39:29.435Z,32.10
2023-08-02T11:42:07.532Z,23.13
2023-08-02T11:44:39.328Z,30.23
2023-08-02T11:47:12.784Z,31.63
2023-08-02T11:49:59.021Z,23.00
2023-08-02T11:52:35.041Z,20.52
2023-08-02T11:55:05.912Z,27.35
2023-08-02T11:57:36.833Z,34.43
2023-08-02T12:00:11.817Z,30.90
2023-08-02T12:02:42.395Z,40.78
2023-08-02T12:05:22.229Z,35.10
2023-08-02T12:07:53.250Z,26.50
2023-08-02T12:10:31.428Z,18.63
2023-08-02T12:13:09.552Z,17.10
2023-08-02T12:15:40.854Z,21.63
2023-08-02T12:18:11.728Z,22.20
2023-08-02T12:20:45.268Z,25.50
2023-08-02T12:23:32.827Z,15.02
2023-08-02T12:26:06.176Z,23.48
2023-08-02T12:28:50.579Z,19.30
2023-08-02T12:31:26.049Z,24.85
2023-08-02T12:33:57.299Z,23.20
2023-08-02T12:36:31.704Z,26.00
2023-08-02T12:39:02.447Z,21.48
2023-08-02T12:41:33.322Z,32.75
2023-08-02T12:44:06.027Z,38.05
2023-08-02T12:46:37.365Z,27.48
2023-08-02T12:49:08.240Z,38.28
2023-08-02T12:51:41.197Z,30.80
2023-08-02T12:54:12.142Z,36.45
2023-08-02T12:56:42.962Z,34.60
2023-08-02T12:59:13.872Z,32.10
2023-08-02T13:01:47.429Z,33.22
2023-08-02T13:04:20.417Z,32.75
2023-08-02T13:06:55.969Z,32.72
2023-08-02T13:09:27.641Z,36.60
2023-08-02T13:12:07.694Z,34.63
2023-08-02T13:14:42.205Z,43.95
2023-08-02T13:17:15.820Z,51.80
2023-08-02T13:19:46.608Z,38.85
2023-08-02T13:22:18.053Z,49.95
2023-08-02T13:24:49.549Z,42.90
2023-08-02T13:27:19.872Z,48.83
2023-08-02T13:29:50.641Z,73.75
2023-08-02T13:32:21.860Z,69.53
2023-08-02T13:34:52.461Z,75.72
2023-08-02T13:37:23.147Z,35.80
2023-08-02T13:39:53.863Z,28.48
2023-08-02T13:42:27.305Z,22.83
2023-08-02T13:44:58.998Z,14.32
2023-08-02T13:47:29.802Z,16.20
2023-08-02T13:50:00.351Z,34.03
2023-08-02T13:52:31.210Z,17.73
2023-08-02T13:55:02.057Z,25.63
2023-08-02T13:57:32.763Z,23.27
2023-08-02T14:00:03.561Z,17.25
2023-08-02T14:02:34.658Z,14.20
2023-08-02T14:05:06.780Z,13.80
2023-08-02T14:07:38.434Z,13.25
2023-08-02T14:10:09.656Z,10.30
2023-08-02T14:12:43.221Z,12.82
2023-08-02T14:15:19.799Z,17.30
2023-08-02T14:17:50.492Z,20.25
2023-08-02T14:20:24.528Z,19.10
2023-08-02T14:23:10.947Z,18.83
2023-08-02T14:25:41.561Z,14.65
2023-08-02T14:28:15.790Z,9.18
2023-08-02T14:30:47.047Z,9.90
2023-08-02T14:33:26.594Z,16.02
2023-08-02T14:35:57.846Z,14.68
2023-08-02T14:38:34.413Z,10.13
2023-08-02T14:41:05.078Z,11.02
2023-08-02T14:43:39.259Z,11.57
2023-08-02T14:46:10.890Z,14.23
2023-08-02T14:48:41.707Z,20.08
2023-08-02T14:51:12.806Z,13.43
2023-08-02T14:53:44.681Z,14.75
2023-08-02T14:56:15.997Z,16.90
2023-08-02T14:58:46.408Z,22.88
2023-08-02T15:01:17.240Z,14.85
2023-08-02T15:03:49.285Z,11.82
2023-08-02T15:06:21.786Z,17.02
2023-08-02T15:08:52.396Z,14.05
2023-08-02T15:11:23.166Z,16.90
2023-08-02T15:13:53.888Z,16.95
2023-08-02T15:16:24.947Z,13.85
2023-08-02T15:18:56.154Z,15.10
2023-08-02T15:21:26.745Z,17.02
2023-08-02T15:23:57.371Z,13.70
2023-08-02T15:26:28.213Z,19.73
2023-08-02T15:28:59.978Z,22.95
2023-08-02T15:31:32.710Z,18.42
2023-08-02T15:34:03.566Z,22.45
2023-08-02T15:36:34.459Z,28.25
2023-08-02T15:39:06.158Z,64.70
2023-08-02T15:41:36.559Z,57.78
2023-08-02T15:44:07.846Z,49.28
2023-08-02T15:46:38.663Z,63.35
2023-08-02T15:49:13.804Z,47.53
2023-08-02T15:51:44.407Z,49.53
2023-08-02T15:54:16.526Z,20.13
2023-08-02T15:59:20.866Z,19.13
2023-08-02T16:01:52.185Z,22.55
2023-08-02T16:04:23.127Z,12.65
2023-08-02T16:06:56.994Z,14.52
2023-08-02T16:09:30.979Z,12.32
2023-08-02T16:12:01.412Z,13.63
2023-08-02T16:14:32.199Z,13.10
2023-08-02T16:17:02.728Z,13.75
2023-08-02T16:19:34.386Z,14.60
2023-08-02T16:22:05.135Z,16.00
2023-08-02T16:24:35.756Z,20.50
2023-08-02T16:27:06.550Z,15.55
2023-08-02T16:29:37.182Z,22.58
2023-08-02T16:32:08.041Z,22.48
2023-08-02T16:34:38.842Z,17.92
2023-08-02T16:37:09.661Z,22.50
2023-08-02T16:39:41.439Z,20.63
2023-08-02T16:42:12.534Z,17.77
2023-08-02T16:44:43.388Z,18.73
2023-08-02T16:47:13.824Z,26.90
2023-08-02T16:49:44.741Z,21.30
2023-08-02T16:52:15.105Z,29.65
2023-08-02T16:54:46.103Z,30.35
2023-08-02T16:57:16.803Z,44.05
2023-08-02T16:59:47.718Z,27.58
2023-08-02T17:02:18.279Z,21.73
2023-08-02T17:04:49.009Z,21.75
2023-08-02T17:07:19.641Z,18.27
2023-08-02T17:09:50.450Z,20.73
2023-08-02T17:12:21.166Z,17.95
2023-08-02T17:14:53.151Z,16.80
2023-08-02T17:17:23.678Z,15.05
2023-08-02T17:19:54.918Z,16.15
2023-08-02T17:22:25.456Z,18.10
2023-08-02T17:24:56.821Z,17.90
2023-08-02T17:27:27.193Z,13.52
2023-08-02T17:29:58.308Z,20.63
2023-08-02T17:32:28.798Z,16.73
2023-08-02T17:34:59.950Z,15.27
2023-08-02T17:37:30.327Z,17.77
2023-08-02T17:40:01.338Z,20.92
2023-08-02T17:42:31.729Z,25.38
2023-08-02T17:45:02.219Z,22.35
2023-08-02T17:47:32.691Z,22.77
2023-08-02T17:50:03.460Z,38.38
2023-08-02T17:52:33.943Z,40.35
2023-08-02T17:55:04.675Z,50.47
2023-08-02T17:57:35.414Z,62.00
2023-08-02T18:00:08.380Z,68.20
2023-08-02T18:02:42.263Z,83.47
2023-08-02T18:05:13.115Z,96.07
2023-08-02T18:07:43.844Z,73.68
2023-08-02T18:10:16.024Z,71.35
2023-08-02T18:12:46.439Z,69.63
2023-08-02T18:15:20.128Z,82.10
2023-08-02T18:17:50.681Z,85.70
2023-08-02T18:20:21.472Z,72.95
2023-08-02T18:22:51.834Z,50.85
2023-08-02T18:25:22.414Z,31.75
2023-08-02T18:27:53.741Z,31.08
2023-08-02T18:30:24.561Z,22.63
2023-08-02T18:32:56.122Z,26.08
2023-08-02T18:35:27.170Z,28.98
2023-08-02T18:37:57.634Z,25.52
2023-08-02T18:40:28.385Z,25.70
2023-08-02T18:42:58.886Z,25.02
2023-08-02T18:45:30.544Z,22.70
2023-08-02T18:48:01.232Z,21.92
2023-08-02T18:50:49.497Z,26.15
2023-08-02T18:53:20.375Z,35.97
2023-08-02T18:55:51.148Z,40.08
2023-08-02T18:58:22.119Z,52.10
2023-08-02T19:00:55.008Z,44.10
2023-08-02T19:03:26.871Z,36.92
2023-08-02T19:06:02.377Z,36.55
2023-08-02T19:08:45.857Z,32.53
2023-08-02T19:11:28.060Z,24.17
2023-08-02T19:13:58.956Z,22.13
2023-08-02T19:16:33.250Z,20.80
2023-08-02T19:19:05.549Z,33.13
2023-08-02T19:21:37.945Z,26.23
2023-08-02T19:24:11.540Z,20.20
2023-08-02T19:26:42.387Z,21.83
2023-08-02T19:29:20.311Z,22.38
2023-08-02T19:31:51.554Z,17.95
2023-08-02T19:34:23.971Z,22.05
2023-08-02T19:36:55.749Z,25.13
2023-08-02T19:39:41.098Z,17.30
2023-08-02T19:42:16.073Z,20.38
2023-08-02T19:44:53.571Z,18.88
2023-08-02T19:47:31.611Z,24.58
2023-08-02T19:50:02.977Z,17.80
2023-08-02T19:52:34.292Z,19.88
2023-08-02T19:55:08.986Z,29.70
2023-08-02T19:57:45.548Z,23.10
2023-08-02T20:00:21.286Z,20.48
2023-08-02T20:02:52.838Z,18.42
2023-08-02T20:05:48.717Z,20.20
2023-08-02T20:08:23.704Z,20.20
2023-08-02T20:10:57.675Z,20.70
2023-08-02T20:13:40.350Z,19.10
2023-08-02T20:16:16.586Z,18.35
2023-08-02T20:18:50.465Z,19.92
2023-08-02T20:21:23.522Z,19.15
2023-08-02T20:24:07.404Z,16.65
2023-08-02T20:26:38.535Z,17.85
2023-08-02T20:29:09.261Z,18.58
2023-08-02T20:31:43.783Z,18.60
2023-08-02T20:34:15.670Z,16.80
2023-08-02T20:36:46.755Z,16.08
2023-08-02T20:39:19.396Z,13.48
2023-08-02T20:41:51.640Z,12.57
2023-08-02T20:44:28.569Z,14.65
2023-08-02T20:46:59.888Z,17.75
2023-08-02T20:49:33.487Z,17.33
2023-08-02T20:52:04.014Z,23.25
2023-08-02T20:54:35.145Z,15.35
2023-08-02T20:57:06.376Z,13.32
2023-08-02T20:59:39.834Z,13.43
2023-08-02T21:02:21.682Z,13.52
2023-08-02T21:04:52.941Z,15.10
2023-08-02T21:07:30.133Z,13.07
2023-08-02T21:10:00.787Z,19.52
2023-08-02T21:12:31.521Z,17.08
2023-08-02T21:15:02.066Z,27.95
2023-08-02T21:17:32.499Z,29.75
2023-08-02T21:20:27.069Z,57.90
2023-08-02T21:22:57.795Z,67.18
2023-08-02T21:25:28.391Z,85.25
2023-08-02T21:27:58.755Z,85.38
2023-08-02T21:30:29.735Z,53.17
2023-08-02T21:33:00.219Z,36.25
2023-08-02T21:35:32.567Z,22.90
2023-08-02T21:40:33.192Z,15.27
2023-08-02T21:43:03.655Z,20.50
2023-08-02T21:45:34.375Z,17.00
2023-08-02T21:48:08.741Z,18.23
2023-08-02T21:50:39.438Z,15.82
2023-08-02T21:53:12.336Z,15.18
2023-08-02T21:55:43.052Z,14.50
2023-08-02T21:58:21.256Z,16.73
2023-08-02T22:00:55.113Z,18.30
2023-08-02T22:03:26.291Z,17.33
2023-08-02T22:06:04.215Z,15.30
2023-08-02T22:30:24.133Z,56.50
2023-08-02T22:33:14.923Z,67.63
2023-08-02T22:35:45.446Z,61.70
2023-08-02T22:38:15.875Z,55.42
2023-08-02T22:40:47.760Z,57.72
2023-08-02T22:43:18.015Z,45.10
2023-08-02T22:45:48.430Z,50.80
2023-08-02T22:50:56.045Z,38.88
2023-08-02T22:53:26.955Z,39.67
2023-08-02T22:55:58.509Z,39.70
2023-08-02T22:58:29.122Z,38.88
2023-08-02T23:00:59.368Z,37.42
2023-08-02T23:03:46.152Z,35.95
2023-08-02T23:06:28.356Z,33.75
2023-08-02T23:08:59.480Z,34.45
2023-08-02T23:11:30.884Z,40.20
2023-08-02T23:14:01.079Z,33.57
2023-08-02T23:16:31.441Z,34.53
2023-08-02T23:19:04.856Z,34.25
2023-08-02T23:21:38.377Z,33.35
2023-08-02T23:24:14.717Z,35.70
2023-08-02T23:26:44.882Z,45.08
2023-08-02T23:29:15.320Z,44.35
2023-08-02T23:31:46.923Z,43.95
2023-08-02T23:34:17.615Z,50.92
2023-08-02T23:36:47.772Z,54.85
2023-08-02T23:39:18.392Z,49.38
2023-08-02T23:41:48.600Z,52.30
2023-08-02T23:44:18.892Z,53.42
2023-08-02T23:46:49.466Z,59.20
2023-08-02T23:49:19.796Z,59.72
2023-08-02T23:51:50.002Z,58.67
2023-08-02T23:54:20.368Z,76.70
2023-08-02T23:56:50.536Z,73.20
2023-08-02T23:59:21.117Z,71.82
